Time;durP1;ratioP1;P1;durP2;ratioP2;P2;SDS_P1;SDS_P2;PMS_P1;PMS_P2;Temp;Humidity;BMP_temperature;BMP_pressure;BME280_temperature;BME280_humidity;BME280_pressure;Samples;Min_cycle;Max_cycle;Signal;HPM_P1;HPM_P2
2022/05/10 00:00:27;;;;;;;11.05;7.55;;;20.80;70.40;;;;;;5013204;28;20029;-65
2022/05/10 00:02:55;;;;;;;13.10;8.70;;;20.80;70.50;;;;;;5012942;28;20576;-66
2022/05/10 00:05:47;;;;;;;10.20;6.97;;;20.70;70.20;;;;;;5013086;28;20383;-66
2022/05/10 00:08:15;;;;;;;12.60;7.18;;;20.80;70.30;;;;;;5013482;28;20125;-66
2022/05/10 00:10:42;;;;;;;11.80;6.93;;;20.70;70.90;;;;;;4998467;28;20026;-66
2022/05/10 00:13:07;;;;;;;9.80;7.85;;;20.70;70.70;;;;;;4993221;28;20019;-65
2022/05/10 00:15:33;;;;;;;12.10;7.18;;;20.70;70.70;;;;;;4995625;28;20033;-66
2022/05/10 00:17:59;;;;;;;11.82;7.63;;;20.60;70.80;;;;;;4997266;28;20407;-66
2022/05/10 00:20:26;;;;;;;12.07;7.00;;;20.60;70.90;;;;;;4997154;28;20027;-67
2022/05/10 00:22:53;;;;;;;14.20;7.60;;;20.60;71.10;;;;;;4996664;28;20069;-66
2022/05/10 00:25:24;;;;;;;12.70;8.68;;;20.60;71.00;;;;;;4997014;28;20061;-65
2022/05/10 00:27:50;;;;;;;17.13;8.80;;;20.60;70.90;;;;;;4996817;28;20388;-63
2022/05/10 00:30:16;;;;;;;14.73;8.93;;;20.60;70.80;;;;;;4997107;28;20280;-65
2022/05/10 00:32:42;;;;;;;13.80;8.05;;;20.60;70.80;;;;;;4996852;28;20027;-65
2022/05/10 00:35:17;;;;;;;12.55;8.35;;;20.60;71.00;;;;;;4997038;28;20029;-66
2022/05/10 00:37:49;;;;;;;15.20;9.73;;;20.60;70.80;;;;;;4996427;28;20038;-65
2022/05/10 00:40:18;;;;;;;17.17;9.18;;;20.50;70.90;;;;;;4996893;28;20046;-66
2022/05/10 00:43:08;;;;;;;15.48;8.38;;;20.50;71.00;;;;;;4996675;28;20054;-65
2022/05/10 00:45:40;;;;;;;14.63;9.90;;;20.50;70.70;;;;;;4996861;28;20026;-64
2022/05/10 00:48:45;;;;;;;10.60;8.25;;;20.40;71.00;;;;;;4996607;28;20384;-66
2022/05/10 00:51:34;;;;;;;13.68;8.65;;;20.50;70.60;;;;;;5005237;28;20121;-66
2022/05/10 00:54:32;;;;;;;16.45;9.15;;;20.40;71.00;;;;;;4996346;28;20022;-66
2022/05/10 00:57:28;;;;;;;17.33;10.02;;;20.40;71.10;;;;;;5002972;28;20475;-66
2022/05/10 01:00:23;;;;;;;14.95;8.48;;;20.40;71.10;;;;;;4996511;28;20038;-65
2022/05/10 01:03:38;;;;;;;15.73;8.57;;;20.40;71.20;;;;;;4996237;28;20022;-66
2022/05/10 01:06:06;;;;;;;13.35;8.75;;;20.30;71.10;;;;;;5014063;28;20037;-67
2022/05/10 01:08:46;;;;;;;17.95;10.20;;;20.30;71.70;;;;;;4994724;28;20096;-65
2022/05/10 01:11:20;;;;;;;12.88;9.35;;;20.30;71.60;;;;;;5015170;28;20022;-66
2022/05/10 01:14:09;;;;;;;15.65;10.05;;;20.30;72.30;;;;;;5015795;28;20485;-66
2022/05/10 01:16:35;;;;;;;15.13;9.13;;;20.30;71.40;;;;;;5015826;28;20076;-60
2022/05/10 01:19:00;;;;;;;12.52;8.90;;;20.20;71.70;;;;;;5015790;28;20076;-65
2022/05/10 01:22:04;;;;;;;16.80;9.35;;;20.20;71.80;;;;;;5015544;28;20097;-65
2022/05/10 01:24:41;;;;;;;13.40;8.40;;;20.20;71.40;;;;;;5015421;28;20033;-65
2022/05/10 01:27:34;;;;;;;14.02;8.40;;;20.20;71.60;;;;;;5014713;28;20373;-66
2022/05/10 01:30:24;;;;;;;14.35;8.45;;;20.20;71.40;;;;;;5015621;28;20036;-65
2022/05/10 01:36:04;;;;;;;16.67;8.52;;;20.20;71.40;;;;;;5015478;28;20032;-66
2022/05/10 01:38:49;;;;;;;14.23;7.78;;;20.20;71.30;;;;;;5015326;28;20048;-65
2022/05/10 01:41:43;;;;;;;15.23;7.63;;;20.10;71.50;;;;;;5015327;28;20033;-65
2022/05/10 01:44:33;;;;;;;15.45;8.23;;;20.20;71.20;;;;;;5014998;28;20117;-59
2022/05/10 01:47:18;;;;;;;12.15;7.07;;;20.20;71.00;;;;;;5015768;28;20109;-66
2022/05/10 01:49:48;;;;;;;17.23;8.93;;;20.10;71.20;;;;;;5015216;28;20030;-61
2022/05/10 01:52:24;;;;;;;14.82;7.80;;;20.10;71.10;;;;;;5015100;28;20109;-65
2022/05/10 01:55:01;;;;;;;16.30;8.00;;;20.20;71.10;;;;;;5015056;28;20379;-63
2022/05/10 01:57:29;;;;;;;10.52;6.97;;;20.20;70.80;;;;;;5014918;28;20034;-66
2022/05/10 02:00:04;;;;;;;16.77;8.32;;;20.20;70.90;;;;;;5014924;28;20034;-66
2022/05/10 02:02:31;;;;;;;10.60;5.93;;;20.10;70.50;;;;;;5014852;28;20018;-64
2022/05/10 02:05:01;;;;;;;12.95;7.28;;;20.10;71.20;;;;;;5014327;28;20044;-66
2022/05/10 02:07:30;;;;;;;10.45;5.85;;;20.10;70.90;;;;;;5015001;28;20041;-66
2022/05/10 02:10:12;;;;;;;17.35;7.70;;;20.20;71.40;;;;;;5006053;28;20018;-66
2022/05/10 02:12:39;;;;;;;14.70;7.60;;;20.20;70.50;;;;;;4995191;28;20046;-65
2022/05/10 02:15:20;;;;;;;12.77;6.97;;;20.10;70.60;;;;;;4994984;28;20026;-66
2022/05/10 02:17:52;;;;;;;15.37;8.37;;;20.10;70.00;;;;;;4995124;28;20030;-63
2022/05/10 02:20:24;;;;;;;;;;;20.10;69.90;;;;;;4994989;28;20472;-66
2022/05/10 02:23:30;;;;;;;12.88;7.45;;;20.10;71.00;;;;;;4995036;28;19960;-66
2022/05/10 02:26:09;;;;;;;14.00;7.45;;;20.10;70.60;;;;;;4994488;28;20046;-64
2022/05/10 02:28:48;;;;;;;12.88;7.65;;;20.10;70.80;;;;;;4994640;28;20463;-65
2022/05/10 02:31:26;;;;;;;17.85;7.95;;;20.10;70.50;;;;;;4994938;28;20092;-66
2022/05/10 02:33:54;;;;;;;10.77;7.07;;;20.10;70.80;;;;;;4994431;28;20037;-66
2022/05/10 02:36:20;;;;;;;11.80;7.10;;;20.10;71.20;;;;;;4994740;28;20060;-66
2022/05/10 02:38:46;;;;;;;16.25;8.07;;;20.10;71.60;;;;;;4994457;28;20049;-66
2022/05/10 02:41:17;;;;;;;13.95;7.40;;;20.10;71.20;;;;;;4994589;28;20026;-66
2022/05/10 02:43:51;;;;;;;14.98;8.75;;;20.10;71.30;;;;;;4994427;28;20125;-66
2022/05/10 02:46:17;;;;;;;15.55;8.90;;;20.10;71.10;;;;;;4994491;28;20030;-66
2022/05/10 02:48:46;;;;;;;14.57;8.98;;;20.00;70.90;;;;;;4994302;28;20034;-66
2022/05/10 02:51:12;;;;;;;16.65;9.05;;;20.10;71.20;;;;;;4994338;28;20022;-63
2022/05/10 02:53:38;;;;;;;14.88;9.27;;;20.00;71.20;;;;;;4994409;28;20364;-66
2022/05/10 02:56:06;;;;;;;14.52;8.65;;;20.00;71.40;;;;;;4994489;28;20035;-60
2022/05/10 02:58:55;;;;;;;14.95;8.48;;;20.00;71.40;;;;;;4994157;28;20035;-66
2022/05/10 03:01:33;;;;;;;15.25;8.00;;;20.10;71.30;;;;;;4995947;28;20068;-65
2022/05/10 03:03:59;;;;;;;15.85;8.88;;;20.00;71.30;;;;;;5008651;28;20383;-66
2022/05/10 03:06:27;;;;;;;16.02;8.40;;;20.00;71.60;;;;;;4993732;28;20018;-65
2022/05/10 03:08:54;;;;;;;14.48;8.23;;;20.00;71.50;;;;;;4992074;28;20412;-65
2022/05/10 03:11:20;;;;;;;14.70;8.18;;;20.00;71.30;;;;;;5013413;28;20018;-65
2022/05/10 03:13:47;;;;;;;14.80;7.22;;;20.00;71.70;;;;;;5013602;28;20049;-66
2022/05/10 03:16:14;;;;;;;18.63;9.30;;;20.00;71.40;;;;;;5013553;28;20038;-66
2022/05/10 03:18:39;;;;;;;22.50;11.68;;;20.00;71.60;;;;;;5013331;28;20539;-66
2022/05/10 03:21:05;;;;;;;23.17;12.93;;;19.70;70.00;;;;;;5013442;28;20097;-65
2022/05/10 03:23:31;;;;;;;24.27;13.20;;;19.10;71.50;;;;;;5013711;28;20038;-66
2022/05/10 03:25:57;;;;;;;22.85;13.40;;;18.70;73.20;;;;;;5013054;28;20057;-65
2022/05/10 03:28:24;;;;;;;28.48;12.45;;;18.30;74.70;;;;;;5013599;28;20125;-64
2022/05/10 03:30:50;;;;;;;21.27;11.95;;;18.20;75.20;;;;;;5013514;28;20101;-66
2022/05/10 03:33:16;;;;;;;24.92;13.85;;;18.20;75.80;;;;;;5013049;28;20038;-65
2022/05/10 03:35:42;;;;;;;23.50;13.57;;;18.10;76.10;;;;;;5013519;28;20022;-66
2022/05/10 03:38:08;;;;;;;26.85;13.15;;;18.00;76.60;;;;;;5013490;28;20479;-66
2022/05/10 03:40:34;;;;;;;28.02;12.77;;;18.00;76.80;;;;;;5013416;28;20030;-66
2022/05/10 03:43:00;;;;;;;26.33;13.05;;;18.00;77.10;;;;;;5013226;28;20076;-66
2022/05/10 03:45:27;;;;;;;23.83;12.25;;;17.80;77.40;;;;;;5013253;28;20030;-63
2022/05/10 03:47:54;;;;;;;25.27;12.13;;;17.80;78.00;;;;;;5012931;28;20033;-66
2022/05/10 03:50:22;;;;;;;21.65;13.35;;;17.80;78.10;;;;;;5017482;28;20037;-66
2022/05/10 03:52:48;;;;;;;21.17;12.88;;;17.70;78.50;;;;;;5019853;28;20026;-65
2022/05/10 03:55:18;;;;;;;24.08;13.18;;;17.70;78.70;;;;;;5020070;28;20426;-65
2022/05/10 03:57:44;;;;;;;20.13;11.75;;;17.60;79.30;;;;;;5019565;28;20022;-66
2022/05/10 04:00:15;;;;;;;18.50;12.20;;;17.70;79.40;;;;;;5019569;28;20104;-66
2022/05/10 04:02:41;;;;;;;24.15;13.20;;;17.60;79.50;;;;;;5019547;28;20034;-64
2022/05/10 04:05:07;;;;;;;23.83;12.15;;;17.60;79.60;;;;;;5019795;28;20041;-65
2022/05/10 04:07:33;;;;;;;18.55;13.13;;;17.50;80.10;;;;;;5019461;28;20029;-66
2022/05/10 04:09:59;;;;;;;22.30;12.55;;;17.60;80.30;;;;;;5010557;28;20057;-66
2022/05/10 04:12:25;;;;;;;18.63;12.25;;;17.60;80.20;;;;;;4999720;28;20472;-65
2022/05/10 04:14:51;;;;;;;17.90;12.00;;;17.50;80.60;;;;;;4999741;28;20476;-65
2022/05/10 04:17:16;;;;;;;18.42;12.48;;;17.50;81.10;;;;;;4999373;28;20381;-65
2022/05/10 04:19:42;;;;;;;22.27;13.20;;;17.50;81.10;;;;;;5000129;28;20026;-65
2022/05/10 04:22:08;;;;;;;19.80;12.18;;;17.40;81.30;;;;;;4999727;28;20049;-65
2022/05/10 04:24:34;;;;;;;27.77;12.48;;;17.40;81.60;;;;;;5019800;28;20073;-65
2022/05/10 04:27:00;;;;;;;24.63;11.77;;;17.50;81.90;;;;;;5017988;28;20085;-63
2022/05/10 04:29:26;;;;;;;20.88;13.20;;;17.40;81.70;;;;;;5018501;28;20030;-63
2022/05/10 04:31:52;;;;;;;16.55;9.68;;;17.50;81.90;;;;;;5018036;28;20491;-65
2022/05/10 04:34:17;;;;;;;21.60;9.98;;;17.60;82.50;;;;;;5019312;28;20034;-67
2022/05/10 04:36:44;;;;;;;19.98;11.73;;;17.90;81.50;;;;;;5016690;28;20029;-67
2022/05/10 04:39:11;;;;;;;19.50;12.82;;;17.90;80.90;;;;;;5016069;28;20042;-68
2022/05/10 04:41:38;;;;;;;20.92;12.93;;;17.90;80.70;;;;;;5019094;28;20025;-68
2022/05/10 04:44:09;;;;;;;20.40;12.57;;;18.00;80.40;;;;;;5017838;28;20062;-67
2022/05/10 04:46:37;;;;;;;21.77;11.95;;;18.10;80.50;;;;;;5019297;28;20029;-67
2022/05/10 04:49:08;;;;;;;23.50;12.10;;;17.90;80.70;;;;;;5018949;28;20165;-60
2022/05/10 04:51:35;;;;;;;17.92;10.80;;;17.90;80.90;;;;;;5017300;28;20033;-67
2022/05/10 04:54:01;;;;;;;16.95;11.52;;;17.80;81.10;;;;;;5019218;28;20060;-67
2022/05/10 04:56:27;;;;;;;14.27;10.15;;;17.80;81.30;;;;;;5019374;28;20029;-67
2022/05/10 04:58:54;;;;;;;13.73;9.80;;;17.90;81.10;;;;;;5018939;28;20041;-67
2022/05/10 05:01:22;;;;;;;17.85;10.65;;;17.90;80.80;;;;;;5010009;28;20030;-65
2022/05/10 05:03:49;;;;;;;19.30;10.00;;;18.00;80.60;;;;;;5003525;28;20077;-67
2022/05/10 05:06:16;;;;;;;17.77;10.60;;;18.00;80.60;;;;;;4994854;28;20023;-67
2022/05/10 05:08:41;;;;;;;14.18;10.18;;;18.10;80.50;;;;;;4995618;28;20102;-60
2022/05/10 05:11:07;;;;;;;21.90;10.45;;;18.00;80.50;;;;;;4995797;28;20109;-65
2022/05/10 05:13:33;;;;;;;12.43;8.77;;;18.10;80.30;;;;;;4995650;28;20030;-68
2022/05/10 05:15:58;;;;;;;12.02;8.32;;;18.10;80.50;;;;;;4999462;28;20030;-68
2022/05/10 05:18:24;;;;;;;13.52;9.02;;;18.30;80.50;;;;;;5001465;28;20022;-66
2022/05/10 05:20:50;;;;;;;16.08;9.40;;;18.20;79.90;;;;;;4996022;28;20038;-66
2022/05/10 05:23:19;;;;;;;13.80;8.98;;;18.40;79.70;;;;;;5012126;28;20518;-66
2022/05/10 05:25:45;;;;;;;12.05;6.22;;;18.40;79.70;;;;;;5014288;28;20033;-67
2022/05/10 05:28:11;;;;;;;17.52;9.38;;;18.60;79.80;;;;;;5009543;28;20022;-67
2022/05/10 05:30:39;;;;;;;14.30;9.45;;;18.60;79.10;;;;;;5007109;28;20030;-67
2022/05/10 05:33:05;;;;;;;15.32;8.38;;;18.60;79.00;;;;;;5013514;28;20391;-68
2022/05/10 05:35:31;;;;;;;13.93;9.70;;;18.70;79.20;;;;;;5014008;28;20029;-62
2022/05/10 05:37:56;;;;;;;13.50;10.07;;;18.70;78.90;;;;;;5008967;28;20530;-68
2022/05/10 05:40:24;;;;;;;16.55;10.15;;;18.70;79.00;;;;;;5025662;28;20121;-67
2022/05/10 05:42:50;;;;;;;12.80;9.38;;;18.70;79.00;;;;;;5014831;28;20092;-67
2022/05/10 05:45:18;;;;;;;10.75;7.57;;;18.70;79.10;;;;;;5014831;28;20471;-59
2022/05/10 05:47:44;;;;;;;16.52;8.90;;;18.80;79.50;;;;;;5014861;28;20080;-62
2022/05/10 05:50:12;;;;;;;14.52;5.00;;;18.90;79.30;;;;;;5022989;28;20042;-65
2022/05/10 05:52:39;;;;;;;7.03;3.53;;;19.00;79.00;;;;;;5010436;28;20057;-63
2022/05/10 05:55:06;;;;;;;3.85;3.08;;;19.10;78.60;;;;;;5015805;28;20037;-65
2022/05/10 05:57:32;;;;;;;7.18;5.03;;;19.20;78.40;;;;;;5020684;28;20087;-64
2022/05/10 06:00:00;;;;;;;7.75;4.07;;;19.20;78.10;;;;;;5012574;28;20476;-64
2022/05/10 06:02:27;;;;;;;8.23;4.38;;;19.30;78.30;;;;;;5002507;28;20097;-66
2022/05/10 06:04:53;;;;;;;6.80;3.50;;;19.30;78.10;;;;;;5008264;28;20444;-67
2022/05/10 06:07:20;;;;;;;6.85;3.70;;;19.40;78.00;;;;;;5010779;28;20095;-62
2022/05/10 06:09:47;;;;;;;5.38;3.70;;;19.40;78.20;;;;;;5014280;28;20030;-67
2022/05/10 06:12:17;;;;;;;7.07;4.75;;;19.40;78.00;;;;;;5013807;28;20014;-63
2022/05/10 06:14:43;;;;;;;16.83;4.45;;;19.50;77.80;;;;;;5013094;28;20506;-62
2022/05/10 06:17:11;;;;;;;8.93;4.05;;;19.50;77.90;;;;;;5011899;28;20376;-61
2022/05/10 06:19:38;;;;;;;8.73;4.18;;;19.50;78.10;;;;;;5013890;28;20030;-62
2022/05/10 06:22:05;;;;;;;8.07;3.85;;;19.50;77.90;;;;;;5009500;28;20044;-62
2022/05/10 06:24:31;;;;;;;8.38;4.10;;;19.60;77.80;;;;;;5003625;28;20034;-61
2022/05/10 06:26:56;;;;;;;8.43;4.20;;;19.60;77.90;;;;;;5001792;28;20045;-60
2022/05/10 06:29:22;;;;;;;8.13;4.38;;;19.60;78.00;;;;;;5010987;28;20388;-60
2022/05/10 06:31:48;;;;;;;10.82;4.85;;;19.60;78.10;;;;;;4994492;28;20022;-62
2022/05/10 06:34:15;;;;;;;10.73;5.50;;;19.60;78.00;;;;;;4994803;28;20468;-59
2022/05/10 06:36:40;;;;;;;6.68;5.45;;;19.60;78.20;;;;;;4994715;28;20471;-61
2022/05/10 06:39:08;;;;;;;11.80;5.30;;;19.60;78.20;;;;;;4995838;28;20049;-62
2022/05/10 06:41:34;;;;;;;7.25;4.57;;;19.60;78.00;;;;;;4994345;28;20018;-62
2022/05/10 06:44:01;;;;;;;8.75;5.55;;;19.70;78.00;;;;;;5005029;28;20034;-61
2022/05/10 06:46:29;;;;;;;7.75;4.70;;;19.60;77.90;;;;;;5012792;28;20100;-61
2022/05/10 06:48:55;;;;;;;8.25;4.57;;;19.70;77.90;;;;;;5014255;28;20022;-60
2022/05/10 06:51:23;;;;;;;9.32;4.75;;;19.70;77.90;;;;;;5013935;28;20072;-61
2022/05/10 06:53:48;;;;;;;8.63;5.07;;;19.70;77.70;;;;;;5014339;28;20022;-63
2022/05/10 06:56:14;;;;;;;8.52;5.72;;;19.70;77.90;;;;;;5012757;28;20045;-62
2022/05/10 06:58:40;;;;;;;9.07;5.15;;;19.70;77.90;;;;;;5007916;28;20033;-62
2022/05/10 07:01:11;;;;;;;10.35;5.53;;;19.70;77.90;;;;;;5013484;28;20065;-62
2022/05/10 07:03:45;;;;;;;8.40;4.47;;;19.80;77.90;;;;;;5000375;28;20113;-65
2022/05/10 07:06:16;;;;;;;8.50;4.70;;;19.80;77.80;;;;;;5008583;28;20095;-65
2022/05/10 07:08:41;;;;;;;7.53;5.78;;;19.80;78.30;;;;;;5013725;28;20057;-64
2022/05/10 07:11:07;;;;;;;8.38;5.28;;;19.80;78.10;;;;;;5013316;28;20431;-64
2022/05/10 07:13:34;;;;;;;9.88;5.70;;;19.80;78.20;;;;;;5013666;28;20116;-63
2022/05/10 07:16:00;;;;;;;7.90;4.28;;;19.90;78.20;;;;;;5013567;28;20026;-62
2022/05/10 07:18:26;;;;;;;9.27;4.95;;;19.90;78.20;;;;;;5013614;28;20108;-61
2022/05/10 07:20:52;;;;;;;7.88;5.32;;;19.90;78.20;;;;;;5013635;28;20058;-65
2022/05/10 07:23:27;;;;;;;5.95;4.55;;;19.90;78.20;;;;;;5013417;28;20034;-61
2022/05/10 07:25:53;;;;;;;9.68;5.13;;;19.90;78.00;;;;;;5012748;28;20430;-62
2022/05/10 07:28:19;;;;;;;7.68;4.88;;;19.90;78.10;;;;;;5013535;28;20479;-65
2022/05/10 07:30:44;;;;;;;9.38;4.85;;;19.90;78.10;;;;;;5013365;28;20026;-65
2022/05/10 07:33:10;;;;;;;8.05;5.07;;;20.00;78.10;;;;;;5013351;28;20088;-65
2022/05/10 07:38:20;;;;;;;6.78;4.57;;;20.00;78.10;;;;;;5013499;28;20486;-61
2022/05/10 07:40:47;;;;;;;7.80;4.78;;;20.00;78.10;;;;;;5013510;28;20034;-61
2022/05/10 07:43:18;;;;;;;5.55;4.50;;;20.00;78.10;;;;;;5013019;28;20104;-64
2022/05/10 07:45:47;;;;;;;6.22;4.40;;;20.00;78.00;;;;;;5013457;28;20037;-62
2022/05/10 07:48:13;;;;;;;5.28;4.20;;;20.00;78.00;;;;;;5013360;28;20022;-65
2022/05/10 07:50:39;;;;;;;8.02;5.00;;;20.00;78.00;;;;;;5013254;28;20379;-60
2022/05/10 07:53:07;;;;;;;6.45;4.82;;;20.10;78.00;;;;;;5012728;28;20018;-61
2022/05/10 07:55:34;;;;;;;7.68;4.00;;;20.00;77.90;;;;;;5013547;28;20044;-64
2022/05/10 07:58:00;;;;;;;6.35;4.40;;;20.10;78.00;;;;;;5013192;28;20065;-60
2022/05/10 08:00:25;;;;;;;5.72;4.47;;;20.10;77.90;;;;;;5013135;28;20476;-63
2022/05/10 08:02:51;;;;;;;5.90;4.05;;;20.10;77.80;;;;;;5011838;28;20026;-60
2022/05/10 08:05:21;;;;;;;13.38;5.15;;;20.10;77.70;;;;;;5012953;28;20036;-64
2022/05/10 08:07:47;;;;;;;5.90;4.03;;;20.10;77.70;;;;;;5012711;28;20105;-61
2022/05/10 08:10:15;;;;;;;5.85;3.67;;;20.10;77.60;;;;;;5011993;28;20061;-64
2022/05/10 08:12:40;;;;;;;8.80;4.07;;;20.20;77.60;;;;;;5012940;28;20030;-65
2022/05/10 08:15:08;;;;;;;6.25;4.20;;;20.20;77.60;;;;;;5013074;28;20029;-62
2022/05/10 08:17:34;;;;;;;7.25;4.43;;;20.20;77.50;;;;;;5013033;28;20026;-61
2022/05/10 08:20:00;;;;;;;5.13;4.25;;;20.20;77.40;;;;;;5013111;28;20030;-65
2022/05/10 08:22:25;;;;;;;6.60;4.05;;;20.20;77.50;;;;;;5012755;28;20029;-64
2022/05/10 08:24:51;;;;;;;6.22;3.92;;;20.20;77.40;;;;;;5012773;28;20076;-60
2022/05/10 08:27:17;;;;;;;7.90;4.07;;;20.20;77.30;;;;;;5012767;28;20057;-64
2022/05/10 08:29:42;;;;;;;6.07;4.00;;;20.30;77.20;;;;;;5013033;28;20497;-64
2022/05/10 08:32:08;;;;;;;8.10;3.67;;;20.30;77.20;;;;;;5013082;28;20353;-61
2022/05/10 08:34:35;;;;;;;5.15;3.78;;;20.30;77.20;;;;;;5012777;28;20550;-66
2022/05/10 08:37:04;;;;;;;4.00;3.50;;;20.30;77.20;;;;;;5015636;28;20025;-62
2022/05/10 08:39:30;;;;;;;4.72;3.80;;;20.30;77.10;;;;;;5016519;28;20430;-64
2022/05/10 08:42:03;;;;;;;4.97;4.00;;;20.30;77.20;;;;;;5016543;28;20097;-60
2022/05/10 08:44:33;;;;;;;3.88;3.25;;;20.40;77.10;;;;;;5016438;28;20038;-61
2022/05/10 08:47:03;;;;;;;4.57;3.40;;;20.40;77.30;;;;;;5015384;28;20434;-63
2022/05/10 08:49:33;;;;;;;4.00;3.60;;;20.40;77.20;;;;;;5016605;28;20046;-64
2022/05/10 08:51:59;;;;;;;5.90;4.03;;;20.40;77.20;;;;;;5016217;28;20534;-65
2022/05/10 08:54:27;;;;;;;6.72;3.78;;;20.40;77.30;;;;;;5016299;28;20057;-61
2022/05/10 08:56:56;;;;;;;6.57;3.67;;;20.40;77.20;;;;;;5016496;28;20109;-65
2022/05/10 08:59:41;;;;;;;4.35;3.47;;;20.40;77.10;;;;;;5016295;28;20501;-61
2022/05/10 09:02:16;;;;;;;5.70;3.97;;;20.40;77.10;;;;;;5015908;28;20105;-65
2022/05/10 09:04:52;;;;;;;5.57;3.47;;;20.50;77.10;;;;;;5015960;28;20526;-65
2022/05/10 09:07:33;;;;;;;6.28;3.60;;;20.50;77.00;;;;;;5015257;28;20026;-61
2022/05/10 09:10:12;;;;;;;5.53;3.30;;;20.50;77.00;;;;;;5016000;28;20080;-65
2022/05/10 09:12:49;;;;;;;4.18;3.60;;;20.50;77.00;;;;;;5015867;28;20022;-63
2022/05/10 09:15:17;;;;;;;7.25;4.03;;;20.50;77.00;;;;;;5015853;28;20053;-62
2022/05/10 09:17:42;;;;;;;5.85;3.35;;;20.60;77.20;;;;;;5015983;28;20467;-62
2022/05/10 09:20:11;;;;;;;7.45;4.03;;;20.60;77.00;;;;;;5015771;28;20033;-61
2022/05/10 09:22:57;;;;;;;5.78;3.55;;;20.60;76.90;;;;;;5015877;28;20026;-63
2022/05/10 09:25:36;;;;;;;5.40;3.65;;;20.70;76.80;;;;;;5015272;28;20038;-61
2022/05/10 09:28:12;;;;;;;5.93;3.70;;;20.60;76.90;;;;;;5015705;28;20065;-60
2022/05/10 09:30:37;;;;;;;6.68;3.85;;;20.70;77.00;;;;;;5015651;28;20057;-63
2022/05/10 09:36:01;;;;;;;4.75;3.63;;;20.70;76.90;;;;;;5015616;28;20443;-61
2022/05/10 09:38:27;;;;;;;5.55;3.38;;;20.80;77.00;;;;;;5015499;28;20022;-63
2022/05/10 09:40:52;;;;;;;6.60;3.67;;;20.80;76.90;;;;;;5015196;28;20033;-61
2022/05/10 09:43:32;;;;;;;7.85;4.05;;;20.80;76.80;;;;;;5015537;28;20102;-62
2022/05/10 09:46:10;;;;;;;7.13;3.67;;;20.90;76.70;;;;;;5015128;28;20053;-65
2022/05/10 09:48:36;;;;;;;5.65;3.92;;;20.90;76.50;;;;;;5014598;28;20088;-65
2022/05/10 09:51:24;;;;;;;3.90;3.50;;;20.90;76.60;;;;;;5015273;28;20097;-65
2022/05/10 09:53:51;;;;;;;5.65;3.80;;;21.00;76.30;;;;;;5015167;28;20039;-65
2022/05/10 09:56:23;;;;;;;5.28;3.47;;;21.00;76.40;;;;;;5014954;28;20026;-65
2022/05/10 09:58:55;;;;;;;3.87;2.87;;;21.00;76.20;;;;;;5015296;28;20120;-65
2022/05/10 10:01:42;;;;;;;;;;;21.00;76.10;;;;;;5015284;28;20265;-65
2022/05/10 10:04:16;;;;;;;4.53;3.53;;;21.00;75.70;;;;;;5014860;28;19914;-65
2022/05/10 10:06:42;;;;;;;8.20;4.13;;;21.00;75.90;;;;;;5014760;28;20033;-65
2022/05/10 10:09:07;;;;;;;4.20;3.38;;;21.00;75.80;;;;;;5014926;28;20018;-65
2022/05/10 10:11:38;;;;;;;5.28;3.53;;;21.00;75.70;;;;;;5015072;28;20471;-65
2022/05/10 10:14:10;;;;;;;7.35;3.60;;;21.10;75.70;;;;;;5015033;28;20034;-62
2022/05/10 10:16:50;;;;;;;7.55;3.65;;;21.10;75.50;;;;;;5014814;28;20502;-65
2022/05/10 10:19:18;;;;;;;4.57;3.45;;;21.10;75.50;;;;;;5014296;28;20018;-64
2022/05/10 10:21:51;;;;;;;9.85;3.70;;;21.10;75.30;;;;;;5014490;28;20034;-64
2022/05/10 10:24:24;;;;;;;7.75;4.35;;;21.10;75.30;;;;;;5014672;28;20034;-64
2022/05/10 10:26:56;;;;;;;6.35;3.63;;;21.20;75.30;;;;;;5014175;28;20325;-64
2022/05/10 10:29:32;;;;;;;7.22;3.85;;;21.20;75.20;;;;;;5014566;28;20164;-65
2022/05/10 10:32:07;;;;;;;4.88;3.55;;;21.20;75.10;;;;;;5014042;28;20089;-65
2022/05/10 10:34:45;;;;;;;4.20;3.10;;;21.30;74.90;;;;;;5014718;28;20026;-64
2022/05/10 10:37:19;;;;;;;5.38;3.33;;;21.30;74.80;;;;;;5014293;28;20038;-65
2022/05/10 10:40:21;;;;;;;6.13;3.20;;;21.30;74.70;;;;;;5014444;28;20018;-63
2022/05/10 10:42:56;;;;;;;5.05;3.53;;;21.30;74.50;;;;;;5014193;28;20026;-65
2022/05/10 10:45:40;;;;;;;5.18;3.67;;;21.30;74.60;;;;;;5012732;28;20034;-64
2022/05/10 10:48:25;;;;;;;6.55;3.22;;;21.40;74.60;;;;;;5013767;28;20459;-64
2022/05/10 10:50:51;;;;;;;6.43;3.60;;;21.40;74.50;;;;;;5014122;28;20037;-64
2022/05/10 10:53:20;;;;;;;7.88;4.10;;;21.40;74.20;;;;;;5012852;28;20463;-65
2022/05/10 10:56:15;;;;;;;7.68;3.13;;;21.40;74.20;;;;;;5014015;28;20030;-65
2022/05/10 10:59:10;;;;;;;6.22;3.42;;;21.50;74.20;;;;;;5013443;28;20486;-65
2022/05/10 11:02:02;;;;;;;5.68;3.53;;;21.50;74.00;;;;;;5013741;28;20128;-65
2022/05/10 11:04:39;;;;;;;4.88;3.15;;;21.50;74.00;;;;;;5013655;28;20052;-65
2022/05/10 11:07:18;;;;;;;7.78;3.63;;;21.50;73.90;;;;;;5013713;28;20077;-65
2022/05/10 11:09:54;;;;;;;5.22;3.70;;;21.50;73.80;;;;;;5013934;28;20036;-64
2022/05/10 11:12:34;;;;;;;8.55;2.88;;;21.60;73.70;;;;;;5013781;28;20026;-65
2022/05/10 11:15:09;;;;;;;4.22;3.03;;;21.60;73.60;;;;;;5013760;28;20025;-65
2022/05/10 11:17:50;;;;;;;7.50;3.30;;;21.70;73.40;;;;;;5013321;28;20049;-65
2022/05/10 11:20:56;;;;;;;5.60;3.10;;;21.70;73.80;;;;;;5013829;28;20022;-64
2022/05/10 11:23:37;;;;;;;6.18;3.40;;;21.70;73.10;;;;;;5013398;28;20025;-64
2022/05/10 11:26:19;;;;;;;5.20;3.20;;;21.70;73.00;;;;;;5011938;28;20116;-65
2022/05/10 11:29:14;;;;;;;4.90;3.53;;;21.70;72.70;;;;;;5013539;28;20391;-65
2022/05/10 11:31:42;;;;;;;5.10;2.95;;;21.70;72.70;;;;;;5013355;28;20049;-64
2022/05/10 11:34:13;;;;;;;7.57;3.17;;;21.70;72.60;;;;;;5013376;28;20494;-65
2022/05/10 11:36:41;;;;;;;7.88;3.17;;;21.70;72.50;;;;;;5013511;28;20030;-64
2022/05/10 11:39:28;;;;;;;3.35;3.05;;;21.80;72.30;;;;;;5013368;28;20036;-63
2022/05/10 11:41:59;;;;;;;4.65;3.45;;;21.80;71.90;;;;;;5013197;28;20471;-65
2022/05/10 11:44:31;;;;;;;5.65;3.42;;;21.80;71.80;;;;;;5013053;28;20495;-65
2022/05/10 11:47:06;;;;;;;5.30;3.05;;;21.80;71.80;;;;;;5013030;28;20057;-64
2022/05/10 11:49:53;;;;;;;4.78;3.30;;;21.90;71.60;;;;;;5013316;28;20037;-65
2022/05/10 11:52:37;;;;;;;4.28;2.97;;;21.90;71.40;;;;;;5013025;28;20524;-65
2022/05/10 11:55:28;;;;;;;4.28;3.45;;;21.90;71.90;;;;;;5013104;28;20036;-64
2022/05/10 11:57:58;;;;;;;6.82;2.88;;;21.90;71.10;;;;;;5013216;28;20041;-65
2022/05/10 12:00:27;;;;;;;4.75;2.70;;;21.90;71.00;;;;;;5012980;28;20032;-64
2022/05/10 12:02:58;;;;;;;6.85;2.55;;;21.90;70.90;;;;;;5012908;28;20029;-65
2022/05/10 12:05:30;;;;;;;4.83;2.37;;;22.00;70.80;;;;;;5013323;28;20088;-63
2022/05/10 12:07:55;;;;;;;6.22;2.65;;;22.00;70.70;;;;;;5013029;28;20399;-65
2022/05/10 12:10:30;;;;;;;5.15;3.00;;;22.00;70.50;;;;;;5013320;28;20476;-65
2022/05/10 12:13:02;;;;;;;3.38;2.50;;;22.10;70.20;;;;;;5016890;28;20026;-64
2022/05/10 12:21:54;;;;;;;3.78;2.83;;;22.10;70.00;;;;;;5015465;28;20504;-65
2022/05/10 12:24:19;;;;;;;4.95;2.40;;;22.10;69.90;;;;;;5016436;28;20061;-64
2022/05/10 12:26:46;;;;;;;5.57;2.80;;;22.10;69.60;;;;;;5016567;28;20471;-65
2022/05/10 12:29:37;;;;;;;7.70;3.10;;;22.10;69.50;;;;;;5016497;28;20450;-65
2022/05/10 12:32:05;;;;;;;6.25;2.78;;;22.20;69.20;;;;;;5016592;28;20044;-62
2022/05/10 12:35:05;;;;;;;5.55;2.47;;;22.20;69.30;;;;;;5016521;28;20026;-64
2022/05/10 12:37:49;;;;;;;5.68;2.63;;;22.20;69.00;;;;;;5016127;28;20116;-65
2022/05/10 12:40:24;;;;;;;4.95;2.70;;;22.20;69.00;;;;;;5016595;28;20088;-63
2022/05/10 12:43:21;;;;;;;5.63;2.88;;;22.20;68.90;;;;;;5016094;28;20022;-62
2022/05/10 12:46:41;;;;;;;3.75;2.00;;;22.30;68.90;;;;;;5016606;28;20475;-64
2022/05/10 12:49:21;;;;;;;5.18;2.50;;;22.30;68.50;;;;;;5014234;28;20034;-64
2022/05/10 12:51:52;;;;;;;5.88;2.50;;;22.30;68.50;;;;;;5016042;28;20046;-64
2022/05/10 12:54:39;;;;;;;4.33;2.13;;;22.30;68.40;;;;;;5016210;28;20049;-65
2022/05/10 12:57:07;;;;;;;3.80;2.05;;;22.40;68.10;;;;;;5016054;28;20099;-64
2022/05/10 12:59:37;;;;;;;2.90;2.10;;;22.40;68.10;;;;;;5016157;28;20034;-65
2022/05/10 13:02:04;;;;;;;4.55;2.22;;;22.40;67.90;;;;;;5016126;28;20096;-65
2022/05/10 13:04:36;;;;;;;6.32;2.25;;;22.40;67.80;;;;;;5015724;28;20033;-64
2022/05/10 13:07:39;;;;;;;3.55;2.58;;;22.40;67.60;;;;;;5016211;28;20022;-65
2022/05/10 13:10:10;;;;;;;3.53;2.15;;;22.50;67.50;;;;;;5015978;28;20491;-66
2022/05/10 13:12:43;;;;;;;3.97;2.33;;;22.50;67.20;;;;;;5015466;28;20095;-65
2022/05/10 13:15:19;;;;;;;2.78;2.17;;;22.50;67.10;;;;;;5015884;28;20383;-65
2022/05/10 13:17:51;;;;;;;5.07;2.08;;;22.50;66.90;;;;;;5015858;28;20022;-64
2022/05/10 13:20:21;;;;;;;4.45;2.00;;;22.50;66.70;;;;;;5015794;28;20096;-65